Nrp Polar — CTEJ — position and weather

sailwx.info

Track history (hours):
 
Tides and Currents Weather Stations Pressure Air Temp Water Temp Dewpoint Dewpoint Depression Visibility Wind Speed Wind Dir Waves Ship Positions

Nrp Polar

Last reported at 2017-May-25 09:29 UTC. Time now 2017-May-28 20:22 UTC.
Position N 38°40' W 009°09'.

Length 17 m; draft 5 m.

Type: Sailing vessel. MMSI: 263142000.

Date/timePositionNaut miles runAvg speedWind from/ knotsBaromVisibWave heightAir tempDewpointWater temp
2017-May-25 09:29N 38°40' W 009°09'0 0.0
2017-May-25 08:29N 38°40' W 009°09'  
2017-May-21 13:18N 38°40' W 009°09'0 0.0
2017-May-21 13:00N 38°40' W 009°09'1 1.0
2017-May-21 12:30N 38°40' W 009°08'1 2.3
2017-May-21 11:53N 38°41' W 009°07'0 0.0
2017-May-21 11:23N 38°41' W 009°07'0 0.0
2017-May-21 10:44N 38°41' W 009°07'0 0.1
2017-May-21 10:30N 38°41' W 009°07'1 3.0
2017-May-21 10:01N 38°42' W 009°09'3 6.7
2017-May-21 09:30N 38°41' W 009°13'2 4.9
2017-May-21 09:01N 38°41' W 009°16'2 4.2
2017-May-21 08:30N 38°41' W 009°13'2 3.5
2017-May-21 08:00N 38°41' W 009°11'2 4.3
2017-May-21 07:29N 38°42' W 009°08'1 2.0
2017-May-21 06:47N 38°40' W 009°09'0 0.0
2017-May-21 06:28N 38°40' W 009°09'0 0.0
2017-May-21 05:58N 38°40' W 009°09'0 0.0
2017-May-21 05:26N 38°40' W 009°09'0 0.0
2017-May-21 04:55N 38°40' W 009°09'0 0.0
2017-May-21 04:25N 38°40' W 009°09'0 0.0
2017-May-21 04:00N 38°40' W 009°09'0 0.0
2017-May-21 03:21N 38°40' W 009°09'0 0.0
2017-May-21 02:59N 38°40' W 009°09'0 0.0
2017-May-21 02:30N 38°40' W 009°09'0 0.0
2017-May-21 01:50N 38°40' W 009°09'0 0.0
2017-May-21 01:28N 38°40' W 009°09'0 0.0
2017-May-21 00:59N 38°40' W 009°09'0 0.0
2017-May-21 00:30N 38°40' W 009°09'0 0.0
2017-May-20 23:58N 38°40' W 009°09'0 0.0
2017-May-20 23:28N 38°40' W 009°09'0 0.0
2017-May-20 22:58N 38°40' W 009°09'0 0.0
2017-May-20 22:28N 38°40' W 009°09'0 0.0
2017-May-20 22:00N 38°40' W 009°09'0 0.0
2017-May-20 21:30N 38°40' W 009°09'0 0.0
2017-May-20 20:59N 38°40' W 009°09'0 0.0
2017-May-20 20:30N 38°40' W 009°09'0 0.0
2017-May-20 20:00N 38°40' W 009°09'0 0.0
2017-May-20 19:30N 38°40' W 009°09'0 0.0
2017-May-20 19:00N 38°40' W 009°09'0 0.0
2017-May-20 17:11N 38°40' W 009°09'0 0.0
2017-May-20 16:59N 38°40' W 009°09'0 0.0
2017-May-20 15:42N 38°40' W 009°09'0 0.0
2017-May-20 15:29N 38°40' W 009°09'1 2.5
2017-May-20 15:01N 38°41' W 009°08'3 6.5
2017-May-20 14:30N 38°41' W 009°12'6 6.3
2017-May-20 13:30N 38°40' W 009°20'3 4.6
2017-May-20 12:58N 38°41' W 009°23'0 0.0
2017-May-20 12:10N 38°41' W 009°23'0 0.0
2017-May-20 11:55N 38°41' W 009°23'0 0.0
2017-May-20 11:25N 38°41' W 009°23'0 0.1
2017-May-20 10:55N 38°41' W 009°23'0 0.1
2017-May-20 10:30N 38°41' W 009°23'1 1.4
2017-May-20 10:01N 38°41' W 009°23'0 0.9
2017-May-20 09:31N 38°41' W 009°24'2 3.3
2017-May-20 09:00N 38°41' W 009°21'2 4.6
2017-May-20 08:31N 38°39' W 009°23'1 1.3
2017-May-20 08:00N 38°40' W 009°24'2 4.8
2017-May-20 07:30N 38°42' W 009°25'0 0.3
2017-May-20 06:58N 38°42' W 009°25'0 0.0
2017-May-20 06:28N 38°42' W 009°25'0 0.0
2017-May-20 05:55N 38°42' W 009°25'0 0.0
2017-May-20 05:28N 38°42' W 009°25'0 0.0
2017-May-20 04:55N 38°42' W 009°25'0 0.0
2017-May-20 04:28N 38°42' W 009°25'0 0.0
2017-May-20 03:58N 38°42' W 009°25'0 0.0
2017-May-20 02:40N 38°42' W 009°25'0 0.0
2017-May-20 02:13N 38°42' W 009°25'0 0.0
2017-May-20 00:49N 38°42' W 009°25'0 0.0
2017-May-20 00:15N 38°42' W 009°25'0 0.0
2017-May-19 23:57N 38°42' W 009°25'0 0.0
2017-May-19 23:12N 38°42' W 009°25'0 0.0
2017-May-19 22:57N 38°42' W 009°25'0 0.0
2017-May-19 22:21N 38°42' W 009°25'0 0.0
2017-May-19 21:48N 38°42' W 009°25'0 0.0
2017-May-19 21:06N 38°42' W 009°25'0 0.0
2017-May-19 19:45N 38°42' W 009°25'0 0.0
2017-May-19 19:29N 38°42' W 009°25'0 0.5
2017-May-19 19:00N 38°42' W 009°25'0 0.7
2017-May-19 18:30N 38°41' W 009°24'0 0.5
2017-May-19 18:00N 38°42' W 009°24'0 0.1
2017-May-19 17:30N 38°42' W 009°25'2 4.7
2017-May-19 17:00N 38°39' W 009°26'3 5.1
2017-May-19 16:31N 38°38' W 009°28'1 2.8
2017-May-19 16:00N 38°38' W 009°26'2 4.1
2017-May-19 15:31N 38°39' W 009°24'3 5.3
2017-May-19 15:00N 38°41' W 009°21'9 8.5
2017-May-19 14:00N 38°41' W 009°10'1 1.1
2017-May-19 12:45N 38°40' W 009°09'0 0.0
2017-May-19 12:30N 38°40' W 009°09'0 0.0
2017-May-19 12:00N 38°40' W 009°09'0 0.0
2017-May-19 11:30N 38°40' W 009°09'0 0.0
2017-May-19 10:59N 38°40' W 009°09'0 0.0
2017-May-19 10:26N 38°40' W 009°09'0 0.0
2017-May-18 10:27N 38°40' W 009°09'0 0.0
2017-May-16 16:19N 38°40' W 009°09'0 0.0
2017-May-16 14:37N 38°40' W 009°09'0 0.0
2017-May-16 10:34N 38°40' W 009°09'0 0.0
2017-May-16 10:16N 38°40' W 009°09'0 0.0
2017-May-16 09:43N 38°40' W 009°09'0 0.0
2017-May-16 08:37N 38°40' W 009°09'0 0.0
2017-May-16 08:25N 38°40' W 009°09'0 0.0
2017-May-16 07:31N 38°40' W 009°09'0 0.0
2017-May-15 10:55N 38°40' W 009°09'0 0.0
2017-May-15 10:22N 38°40' W 009°09'0 0.0
2017-May-15 09:51N 38°40' W 009°09'0 0.0
2017-May-15 09:29N 38°40' W 009°09'  
Track history (hours):
 
Tides and Currents Weather Stations Pressure Air Temp Water Temp Dewpoint Dewpoint Depression Visibility Wind Speed Wind Dir Waves Ship Positions

Nrp Polar

Last reported at 2017-May-25 09:29 UTC. Time now 2017-May-28 20:22 UTC.
Position N 38°40' W 009°09'.

Length 17 m; draft 5 m.

Type: Sailing vessel. MMSI: 263142000.

Date/timePositionNaut miles runAvg speedWind from/ knotsBaromVisibWave heightAir tempDewpointWater temp
2017-May-25 09:29N 38°40' W 009°09'0 0.0
2017-May-25 08:29N 38°40' W 009°09'  
2017-May-21 13:18N 38°40' W 009°09'0 0.0
2017-May-21 13:00N 38°40' W 009°09'1 1.0
2017-May-21 12:30N 38°40' W 009°08'1 2.3
2017-May-21 11:53N 38°41' W 009°07'0 0.0
2017-May-21 11:23N 38°41' W 009°07'0 0.0
2017-May-21 10:44N 38°41' W 009°07'0 0.1
2017-May-21 10:30N 38°41' W 009°07'1 3.0
2017-May-21 10:01N 38°42' W 009°09'3 6.7
2017-May-21 09:30N 38°41' W 009°13'2 4.9
2017-May-21 09:01N 38°41' W 009°16'2 4.2
2017-May-21 08:30N 38°41' W 009°13'2 3.5
2017-May-21 08:00N 38°41' W 009°11'2 4.3
2017-May-21 07:29N 38°42' W 009°08'1 2.0
2017-May-21 06:47N 38°40' W 009°09'0 0.0
2017-May-21 06:28N 38°40' W 009°09'0 0.0
2017-May-21 05:58N 38°40' W 009°09'0 0.0
2017-May-21 05:26N 38°40' W 009°09'0 0.0
2017-May-21 04:55N 38°40' W 009°09'0 0.0
2017-May-21 04:25N 38°40' W 009°09'0 0.0
2017-May-21 04:00N 38°40' W 009°09'0 0.0
2017-May-21 03:21N 38°40' W 009°09'0 0.0
2017-May-21 02:59N 38°40' W 009°09'0 0.0
2017-May-21 02:30N 38°40' W 009°09'0 0.0
2017-May-21 01:50N 38°40' W 009°09'0 0.0
2017-May-21 01:28N 38°40' W 009°09'0 0.0
2017-May-21 00:59N 38°40' W 009°09'0 0.0
2017-May-21 00:30N 38°40' W 009°09'0 0.0
2017-May-20 23:58N 38°40' W 009°09'0 0.0
2017-May-20 23:28N 38°40' W 009°09'0 0.0
2017-May-20 22:58N 38°40' W 009°09'0 0.0
2017-May-20 22:28N 38°40' W 009°09'0 0.0
2017-May-20 22:00N 38°40' W 009°09'0 0.0
2017-May-20 21:30N 38°40' W 009°09'0 0.0
2017-May-20 20:59N 38°40' W 009°09'0 0.0
2017-May-20 20:30N 38°40' W 009°09'0 0.0
2017-May-20 20:00N 38°40' W 009°09'0 0.0
2017-May-20 19:30N 38°40' W 009°09'0 0.0
2017-May-20 19:00N 38°40' W 009°09'0 0.0
2017-May-20 17:11N 38°40' W 009°09'0 0.0
2017-May-20 16:59N 38°40' W 009°09'0 0.0
2017-May-20 15:42N 38°40' W 009°09'0 0.0
2017-May-20 15:29N 38°40' W 009°09'1 2.5
2017-May-20 15:01N 38°41' W 009°08'3 6.5
2017-May-20 14:30N 38°41' W 009°12'6 6.3
2017-May-20 13:30N 38°40' W 009°20'3 4.6
2017-May-20 12:58N 38°41' W 009°23'0 0.0
2017-May-20 12:10N 38°41' W 009°23'0 0.0
2017-May-20 11:55N 38°41' W 009°23'0 0.0
2017-May-20 11:25N 38°41' W 009°23'0 0.1
2017-May-20 10:55N 38°41' W 009°23'0 0.1
2017-May-20 10:30N 38°41' W 009°23'1 1.4
2017-May-20 10:01N 38°41' W 009°23'0 0.9
2017-May-20 09:31N 38°41' W 009°24'2 3.3
2017-May-20 09:00N 38°41' W 009°21'2 4.6
2017-May-20 08:31N 38°39' W 009°23'1 1.3
2017-May-20 08:00N 38°40' W 009°24'2 4.8
2017-May-20 07:30N 38°42' W 009°25'0 0.3
2017-May-20 06:58N 38°42' W 009°25'0 0.0
2017-May-20 06:28N 38°42' W 009°25'0 0.0
2017-May-20 05:55N 38°42' W 009°25'0 0.0
2017-May-20 05:28N 38°42' W 009°25'0 0.0
2017-May-20 04:55N 38°42' W 009°25'0 0.0
2017-May-20 04:28N 38°42' W 009°25'0 0.0
2017-May-20 03:58N 38°42' W 009°25'0 0.0
2017-May-20 02:40N 38°42' W 009°25'0 0.0
2017-May-20 02:13N 38°42' W 009°25'0 0.0
2017-May-20 00:49N 38°42' W 009°25'0 0.0
2017-May-20 00:15N 38°42' W 009°25'0 0.0
2017-May-19 23:57N 38°42' W 009°25'0 0.0
2017-May-19 23:12N 38°42' W 009°25'0 0.0
2017-May-19 22:57N 38°42' W 009°25'0 0.0
2017-May-19 22:21N 38°42' W 009°25'0 0.0
2017-May-19 21:48N 38°42' W 009°25'0 0.0
2017-May-19 21:06N 38°42' W 009°25'0 0.0
2017-May-19 19:45N 38°42' W 009°25'0 0.0
2017-May-19 19:29N 38°42' W 009°25'0 0.5
2017-May-19 19:00N 38°42' W 009°25'0 0.7
2017-May-19 18:30N 38°41' W 009°24'0 0.5
2017-May-19 18:00N 38°42' W 009°24'0 0.1
2017-May-19 17:30N 38°42' W 009°25'2 4.7
2017-May-19 17:00N 38°39' W 009°26'3 5.1
2017-May-19 16:31N 38°38' W 009°28'1 2.8
2017-May-19 16:00N 38°38' W 009°26'2 4.1
2017-May-19 15:31N 38°39' W 009°24'3 5.3
2017-May-19 15:00N 38°41' W 009°21'9 8.5
2017-May-19 14:00N 38°41' W 009°10'1 1.1
2017-May-19 12:45N 38°40' W 009°09'0 0.0
2017-May-19 12:30N 38°40' W 009°09'0 0.0
2017-May-19 12:00N 38°40' W 009°09'0 0.0
2017-May-19 11:30N 38°40' W 009°09'0 0.0
2017-May-19 10:59N 38°40' W 009°09'0 0.0
2017-May-19 10:26N 38°40' W 009°09'0 0.0
2017-May-18 10:27N 38°40' W 009°09'0 0.0
2017-May-16 16:19N 38°40' W 009°09'0 0.0
2017-May-16 14:37N 38°40' W 009°09'0 0.0
2017-May-16 10:34N 38°40' W 009°09'0 0.0
2017-May-16 10:16N 38°40' W 009°09'0 0.0
2017-May-16 09:43N 38°40' W 009°09'0 0.0
2017-May-16 08:37N 38°40' W 009°09'0 0.0
2017-May-16 08:25N 38°40' W 009°09'0 0.0
2017-May-16 07:31N 38°40' W 009°09'0 0.0
2017-May-15 10:55N 38°40' W 009°09'0 0.0
2017-May-15 10:22N 38°40' W 009°09'0 0.0
2017-May-15 09:51N 38°40' W 009°09'0 0.0
2017-May-15 09:29N 38°40' W 009°09'  

Dump ship's entire track history